Time;durP1;ratioP1;P1;durP2;ratioP2;P2;SDS_P1;SDS_P2;PMS_P1;PMS_P2;Temp;Humidity;BMP_temperature;BMP_pressure;BME280_temperature;BME280_humidity;BME280_pressure;Samples;Min_cycle;Max_cycle;Signal;HPM_P1;HPM_P2
2022/03/15 00:00:23;;;;;;;;;10.75;9.00;;;;;11.75;54.95;101812.00;5058141;28;45468;-80
2022/03/15 00:02:49;;;;;;;;;8.75;7.00;;;;;11.85;54.58;101813.09;5057446;28;45326;-83
2022/03/15 00:05:18;;;;;;;;;9.00;8.00;;;;;11.85;54.92;101810.44;5057727;28;45403;-82
2022/03/15 00:07:44;;;;;;;;;7.00;7.00;;;;;11.86;55.12;101806.94;5057781;28;46428;-80
2022/03/15 00:10:15;;;;;;;;;9.50;8.00;;;;;11.87;54.12;101811.38;5058428;28;45266;-83
2022/03/15 00:12:45;;;;;;;;;8.50;8.50;;;;;11.86;55.03;101815.75;5057726;28;45343;-79
2022/03/15 00:15:11;;;;;;;;;8.75;8.75;;;;;11.84;55.18;101808.69;5058067;28;45236;-82
2022/03/15 00:17:38;;;;;;;;;6.25;6.25;;;;;11.87;54.80;101803.44;5057574;28;46450;-81
2022/03/15 00:20:05;;;;;;;;;7.50;7.50;;;;;11.87;55.21;101796.41;5058022;28;45362;-80
2022/03/15 00:22:34;;;;;;;;;12.75;10.25;;;;;11.86;54.78;101792.00;5058132;28;45261;-81
2022/03/15 00:25:01;;;;;;;;;5.00;5.00;;;;;11.85;55.45;101792.84;5058496;28;45275;-81
2022/03/15 00:27:28;;;;;;;;;8.75;6.00;;;;;11.84;55.11;101792.84;5057517;28;45232;-80
2022/03/15 00:29:53;;;;;;;;;11.00;9.25;;;;;11.80;55.73;101791.88;5059436;28;45503;-79
2022/03/15 00:32:19;;;;;;;;;9.75;8.75;;;;;11.79;55.93;101789.16;5060055;28;45325;-82
2022/03/15 00:34:47;;;;;;;;;10.50;8.50;;;;;11.78;55.07;101785.63;5057235;28;45466;-83
2022/03/15 00:37:13;;;;;;;;;9.25;7.25;;;;;11.80;55.17;101797.16;5056820;28;46620;-81
2022/03/15 00:39:38;;;;;;;;;8.75;7.00;;;;;11.80;55.22;101790.97;5056756;28;45369;-82
2022/03/15 00:42:04;;;;;;;;;7.00;7.00;;;;;11.80;55.52;101793.63;5056735;28;45226;-82
2022/03/15 00:44:29;;;;;;;;;9.50;8.25;;;;;11.78;55.03;101788.28;5056781;28;45497;-81
2022/03/15 00:46:54;;;;;;;;;11.75;8.50;;;;;11.81;56.03;101790.13;5056594;28;45339;-82
2022/03/15 00:49:20;;;;;;;;;9.25;7.00;;;;;11.80;55.46;101783.06;5056628;28;45275;-82
2022/03/15 00:51:45;;;;;;;;;8.00;6.50;;;;;11.71;54.79;101768.78;5056791;28;45359;-82
2022/03/15 00:54:11;;;;;;;;;12.25;7.75;;;;;11.79;55.22;101784.78;5072734;28;45468;-80
2022/03/15 00:56:36;;;;;;;;;7.25;6.50;;;;;11.78;54.72;101771.56;5058087;28;45379;-82
2022/03/15 00:59:02;;;;;;;;;8.25;8.25;;;;;11.77;54.77;101772.41;5059933;28;45312;-81
2022/03/15 01:01:27;;;;;;;;;9.50;7.25;;;;;11.77;55.41;101775.94;5060336;28;45379;-82
2022/03/15 01:03:53;;;;;;;;;8.25;8.25;;;;;11.78;54.96;101763.63;5060270;28;45351;-81
2022/03/15 01:06:18;;;;;;;;;7.25;7.00;;;;;11.78;54.72;101766.28;5062795;28;46090;-83
2022/03/15 01:08:44;;;;;;;;;11.25;7.50;;;;;11.78;55.05;101759.25;5061804;28;45375;-81
2022/03/15 01:11:09;;;;;;;;;4.25;4.00;;;;;11.79;54.84;101761.03;5059342;28;45398;-81
2022/03/15 01:13:34;;;;;;;;;6.00;6.00;;;;;11.70;54.70;101748.53;5060307;28;45431;-82
2022/03/15 01:16:00;;;;;;;;;6.50;4.50;;;;;11.74;54.72;101753.91;5059820;28;46160;-83
2022/03/15 01:18:27;;;;;;;;;9.00;5.00;;;;;11.78;55.56;101759.25;5059864;28;45252;-83
2022/03/15 01:20:53;;;;;;;;;9.00;4.25;;;;;11.81;55.15;101753.16;5060192;28;45280;-82
2022/03/15 01:23:18;;;;;;;;;5.75;5.75;;;;;11.66;54.86;101724.72;5059867;28;45412;-82
2022/03/15 01:25:44;;;;;;;;;7.25;5.75;;;;;11.81;55.36;101743.47;5059486;28;45954;-80
2022/03/15 01:28:10;;;;;;;;;5.00;4.00;;;;;11.81;54.99;101738.19;5059659;28;45424;-82
2022/03/15 01:30:35;;;;;;;;;11.50;8.25;;;;;11.76;55.71;101734.56;5059819;28;45255;-83
2022/03/15 01:33:01;;;;;;;;;3.25;3.25;;;;;11.68;55.29;101736.19;5059793;28;45440;-78
2022/03/15 01:35:26;;;;;;;;;5.50;5.50;;;;;11.68;56.04;101731.78;5059683;28;45779;-81
2022/03/15 01:37:52;;;;;;;;;7.00;5.75;;;;;11.67;56.09;101735.28;5060043;28;45189;-79
2022/03/15 01:40:17;;;;;;;;;8.50;5.00;;;;;11.68;56.21;101730.91;5059903;28;45292;-82
2022/03/15 01:42:42;;;;;;;;;8.25;4.75;;;;;11.67;56.67;101727.38;5063593;28;45630;-80
2022/03/15 01:45:09;;;;;;;;;6.00;6.00;;;;;11.71;57.22;101733.59;5063450;28;46729;-83
2022/03/15 01:47:35;;;;;;;;;6.00;5.00;;;;;11.67;56.76;101718.56;5066765;28;45514;-82
2022/03/15 01:50:00;;;;;;;;;9.50;7.25;;;;;11.71;56.44;101717.75;5068080;28;45337;-78
2022/03/15 01:52:26;;;;;;;;;5.00;5.00;;;;;11.59;57.06;101699.06;5072026;28;44712;-78
2022/03/15 01:54:51;;;;;;;;;8.00;8.00;;;;;11.65;57.29;101704.47;5079567;28;46136;-76
2022/03/15 01:57:17;;;;;;;;;10.00;8.00;;;;;11.66;57.29;101704.47;5080739;28;44794;-74
2022/03/15 01:59:44;;;;;;;;;7.25;6.00;;;;;11.62;58.08;101701.75;5081281;28;44792;-79
2022/03/15 02:02:10;;;;;;;;;9.25;7.75;;;;;11.53;58.54;101691.91;5077921;28;44704;-79
2022/03/15 02:04:39;;;;;;;;;5.75;5.00;;;;;11.58;58.94;101692.88;5067855;28;46659;-82
2022/03/15 02:07:15;;;;;;;;;10.25;6.50;;;;;11.55;58.54;101690.19;5064261;28;45309;-83
2022/03/15 02:09:41;;;;;;;;;5.75;5.75;;;;;11.50;59.91;101680.41;5063455;28;45306;-81
2022/03/15 02:12:07;;;;;;;;;10.25;7.00;;;;;11.46;60.56;101670.69;5063825;28;45295;-83
2022/03/15 02:14:34;;;;;;;;;9.25;7.25;;;;;11.52;59.66;101682.22;5063132;28;46351;-83
2022/03/15 02:16:59;;;;;;;;;10.00;4.25;;;;;11.52;60.23;101679.56;5061746;28;45307;-80
2022/03/15 02:19:28;;;;;;;;;5.00;5.00;;;;;11.49;61.45;101690.06;5061771;28;45371;-81
2022/03/15 02:21:57;;;;;;;;;9.25;5.75;;;;;11.38;61.43;101666.13;5059285;28;45493;-79
2022/03/15 02:24:23;;;;;;;;;10.25;8.00;;;;;11.40;61.95;101676.72;5060614;28;46269;-82
2022/03/15 02:26:49;;;;;;;;;6.25;6.25;;;;;11.37;61.25;101667.00;5062208;28;45219;-82
2022/03/15 02:29:16;;;;;;;;;8.25;7.25;;;;;11.31;61.82;101661.59;5062486;28;45259;-82
2022/03/15 02:31:41;;;;;;;;;9.00;8.50;;;;;11.41;61.94;101665.28;5061374;28;45531;-82
2022/03/15 02:34:08;;;;;;;;;8.25;8.25;;;;;11.35;61.89;101644.97;5062059;28;45353;-81
2022/03/15 02:36:34;;;;;;;;;6.25;6.25;;;;;11.36;63.19;101653.78;5069910;28;45332;-80
2022/03/15 02:39:00;;;;;;;;;8.75;7.50;;;;;11.30;63.66;101657.19;5083457;28;45327;-83
2022/03/15 02:41:25;;;;;;;;;7.50;7.00;;;;;11.22;64.50;101653.50;5081855;28;45392;-82
2022/03/15 02:43:50;;;;;;;;;8.00;8.00;;;;;11.25;64.18;101650.91;5079430;28;45960;-81
2022/03/15 02:46:16;;;;;;;;;4.25;4.25;;;;;11.23;63.25;101638.56;5070869;28;45959;-82
2022/03/15 02:48:43;;;;;;;;;8.25;7.50;;;;;11.24;64.56;101658.81;5058451;28;45840;-80
2022/03/15 02:51:10;;;;;;;;;6.00;6.00;;;;;11.21;65.17;101650.84;5058769;28;45291;-82
2022/03/15 02:53:37;;;;;;;;;11.50;10.00;;;;;11.21;65.06;101643.81;5058275;28;47602;-82
2022/03/15 02:56:10;;;;;;;;;8.50;6.00;;;;;11.28;65.84;101651.00;5058426;28;45238;-83
2022/03/15 02:58:37;;;;;;;;;7.50;7.50;;;;;11.33;64.97;101644.03;5058031;28;45481;-83
2022/03/15 03:01:03;;;;;;;;;9.25;9.00;;;;;11.30;65.28;101645.75;5058139;28;45505;-83
2022/03/15 03:03:28;;;;;;;;;11.25;7.25;;;;;11.25;65.86;101624.53;5058052;28;46181;-81
2022/03/15 03:05:54;;;;;;;;;9.75;7.75;;;;;11.17;65.70;101610.34;5058074;28;45903;-81
2022/03/15 03:08:20;;;;;;;;;8.00;8.00;;;;;11.26;66.93;101633.34;5058271;28;45413;-80
2022/03/15 03:10:46;;;;;;;;;11.00;11.00;;;;;11.22;67.33;101624.50;5058405;28;45514;-79
2022/03/15 03:13:11;;;;;;;;;8.50;7.25;;;;;11.29;67.37;101625.50;5059756;28;47027;-84
2022/03/15 03:15:36;;;;;;;;;7.50;7.25;;;;;11.33;66.72;101627.31;5066877;28;45305;-84
2022/03/15 03:18:02;;;;;;;;;8.75;8.00;;;;;11.35;66.84;101621.25;5057564;28;45357;-83
2022/03/15 03:20:30;;;;;;;;;7.00;7.00;;;;;11.38;67.48;101623.03;5058190;28;45293;-83
2022/03/15 03:22:56;;;;;;;;;12.50;9.50;;;;;11.40;68.04;101619.56;5057488;28;45430;-83
2022/03/15 03:25:24;;;;;;;;;12.00;10.50;;;;;11.34;68.94;101619.44;5058075;28;45233;-83
2022/03/15 03:27:49;;;;;;;;;10.50;7.50;;;;;11.33;69.14;101620.28;5057877;28;45380;-82
2022/03/15 03:30:15;;;;;;;;;8.50;8.50;;;;;11.35;68.82;101609.78;5058243;28;45295;-80
2022/03/15 03:32:41;;;;;;;;;10.75;9.25;;;;;11.32;68.95;101617.63;5057643;28;47014;-82
2022/03/15 03:35:06;;;;;;;;;10.75;9.50;;;;;11.09;70.09;101585.56;5057597;28;45471;-82
2022/03/15 03:37:33;;;;;;;;;8.50;8.00;;;;;11.26;69.40;101599.97;5057641;28;45382;-81
2022/03/15 03:39:59;;;;;;;;;9.00;8.75;;;;;11.34;70.34;101619.44;5058138;28;45288;-80
2022/03/15 03:42:25;;;;;;;;;8.75;8.00;;;;;11.32;68.89;101615.00;5057445;28;47004;-82
2022/03/15 03:44:50;;;;;;;;;11.75;9.75;;;;;11.35;69.94;101617.69;5057805;28;45227;-82
2022/03/15 03:47:17;;;;;;;;;10.50;9.25;;;;;11.33;70.44;101616.78;5057710;28;45319;-83
2022/03/15 03:49:43;;;;;;;;;10.25;9.75;;;;;11.31;71.05;101610.59;5061242;28;45172;-81
2022/03/15 03:52:11;;;;;;;;;13.25;11.50;;;;;11.29;71.56;101607.03;5061326;28;47040;-80
2022/03/15 03:54:37;;;;;;;;;10.75;10.75;;;;;11.34;71.39;101614.16;5052985;28;45326;-82
2022/03/15 03:57:02;;;;;;;;;11.00;9.50;;;;;11.30;71.93;101600.91;5060980;28;45330;-81
2022/03/15 03:59:28;;;;;;;;;8.75;6.25;;;;;11.29;73.21;101607.03;5060490;28;45267;-82
2022/03/15 04:01:53;;;;;;;;;8.00;8.00;;;;;11.33;72.92;101604.47;5057367;28;46976;-83
2022/03/15 04:04:19;;;;;;;;;10.75;9.75;;;;;11.29;72.78;101597.38;5057580;28;45247;-82
2022/03/15 04:06:44;;;;;;;;;10.50;6.25;;;;;11.25;73.47;101590.25;5057417;28;45232;-81
2022/03/15 04:09:10;;;;;;;;;11.25;10.25;;;;;11.31;73.01;101593.00;5057736;28;45446;-82
2022/03/15 04:11:39;;;;;;;;;9.25;9.25;;;;;11.29;73.62;101600.00;5057399;28;45643;-82
2022/03/15 04:14:04;;;;;;;;;8.25;6.25;;;;;11.19;74.40;101587.53;5057060;28;45347;-83
2022/03/15 04:16:30;;;;;;;;;9.00;7.75;;;;;11.23;75.39;101589.34;5057260;28;45317;-81
2022/03/15 04:18:57;;;;;;;;;6.50;6.50;;;;;11.21;73.92;101582.28;5057451;28;45443;-82
2022/03/15 04:21:24;;;;;;;;;9.50;9.25;;;;;11.26;75.28;101585.88;5056555;28;46139;-82
2022/03/15 04:23:54;;;;;;;;;11.00;9.00;;;;;11.27;74.41;101583.28;5058222;28;45247;-80
2022/03/15 04:26:23;;;;;;;;;9.25;9.25;;;;;11.32;74.50;101583.34;5060792;28;45437;-82
2022/03/15 04:28:49;;;;;;;;;10.00;10.00;;;;;11.37;74.81;101581.69;5059982;28;45320;-80
2022/03/15 04:31:14;;;;;;;;;8.50;8.50;;;;;11.42;74.83;101582.66;5062020;28;45993;-78
2022/03/15 04:33:40;;;;;;;;;8.50;5.75;;;;;11.43;73.92;101589.69;5062275;28;45445;-81
2022/03/15 04:36:06;;;;;;;;;8.50;8.25;;;;;11.45;74.57;101590.63;5060690;28;45409;-82
2022/03/15 04:38:32;;;;;;;;;11.00;10.00;;;;;11.46;74.05;101588.88;5060934;28;45209;-78
2022/03/15 04:40:59;;;;;;;;;9.25;7.50;;;;;11.48;75.18;101579.25;5060530;28;46300;-82
2022/03/15 04:43:25;;;;;;;;;13.50;10.25;;;;;11.45;74.05;101580.09;5060561;28;45562;-82
2022/03/15 04:45:53;;;;;;;;;13.50;9.00;;;;;11.45;74.55;101581.78;5060550;28;45269;-82
2022/03/15 04:48:20;;;;;;;;;9.25;9.25;;;;;11.48;74.45;101574.84;5060837;28;45345;-76
2022/03/15 04:50:48;;;;;;;;;10.50;10.25;;;;;11.42;74.99;101554.50;5059910;28;47124;-81
2022/03/15 04:53:14;;;;;;;;;9.75;9.25;;;;;11.49;74.67;101581.91;5060406;28;45333;-82
2022/03/15 04:55:39;;;;;;;;;7.25;6.75;;;;;11.51;75.36;101576.63;5060415;28;45451;-83
2022/03/15 04:58:05;;;;;;;;;11.00;10.25;;;;;11.52;75.15;101576.66;5060239;28;45381;-83
2022/03/15 05:00:30;;;;;;;;;12.50;11.00;;;;;11.51;75.28;101571.34;5061676;28;46941;-83
2022/03/15 05:02:56;;;;;;;;;11.00;9.00;;;;;11.48;76.04;101571.31;5062158;28;45329;-83
2022/03/15 05:05:21;;;;;;;;;6.00;6.00;;;;;11.34;75.72;101561.41;5059742;28;45386;-82
2022/03/15 05:07:49;;;;;;;;;8.75;8.75;;;;;11.37;76.10;101558.84;5060199;28;45326;-82
2022/03/15 05:13:00;;;;;;;;;5.00;5.00;;;;;11.36;75.77;101570.25;5059910;28;45185;-83
2022/03/15 05:15:26;;;;;;;;;11.00;10.00;;;;;11.39;76.92;101565.03;5058858;28;45291;-81
2022/03/15 05:17:51;;;;;;;;;6.25;6.25;;;;;11.38;75.52;101559.72;5060275;28;45265;-82
2022/03/15 05:20:17;;;;;;;;;13.00;12.00;;;;;11.46;75.83;101557.22;5059150;28;46607;-82
2022/03/15 05:22:44;;;;;;;;;8.50;8.50;;;;;11.44;76.00;101554.53;5059729;28;45222;-81
2022/03/15 05:25:13;;;;;;;;;9.00;9.00;;;;;11.48;76.16;101566.94;5059805;28;45350;-82
2022/03/15 05:27:39;;;;;;;;;11.00;11.00;;;;;11.52;76.41;101565.22;5059751;28;45350;-82
2022/03/15 05:30:05;;;;;;;;;11.00;9.75;;;;;11.55;75.64;101563.53;5059583;28;47343;-82
2022/03/15 05:32:31;;;;;;;;;10.75;9.75;;;;;11.58;75.86;101553.03;5059326;28;45353;-82
2022/03/15 05:34:56;;;;;;;;;10.50;10.00;;;;;11.62;75.94;101565.38;5059585;28;45503;-81
2022/03/15 05:37:22;;;;;;;;;7.50;7.50;;;;;11.62;76.17;101556.59;5061513;28;45587;-83
2022/03/15 05:39:47;;;;;;;;;8.25;6.00;;;;;11.66;75.48;101556.69;5060099;28;46035;-82
2022/03/15 05:42:13;;;;;;;;;10.25;10.25;;;;;11.70;76.00;101570.81;5059889;28;45247;-82
2022/03/15 05:44:41;;;;;;;;;8.75;6.50;;;;;11.73;75.78;101564.72;5060867;28;45728;-81
2022/03/15 05:47:07;;;;;;;;;11.25;10.50;;;;;11.71;75.59;101565.53;5062534;28;45569;-82
2022/03/15 05:49:34;;;;;;;;;11.25;10.25;;;;;11.69;75.72;101567.28;5059660;28;46105;-81
2022/03/15 05:51:59;;;;;;;;;10.25;10.25;;;;;11.71;75.82;101564.66;5062604;28;45472;-82
2022/03/15 05:54:24;;;;;;;;;11.00;11.00;;;;;11.69;75.74;101582.22;5062336;28;45272;-80
2022/03/15 05:56:50;;;;;;;;;12.00;11.25;;;;;11.71;76.05;101578.75;5062073;28;45218;-82
2022/03/15 05:59:16;;;;;;;;;12.25;11.75;;;;;11.65;75.69;101570.75;5062306;28;45984;-81
2022/03/15 06:01:42;;;;;;;;;12.00;12.00;;;;;11.70;75.44;101578.72;5062082;28;45364;-80
2022/03/15 06:04:09;;;;;;;;;12.75;10.25;;;;;11.66;76.28;101563.72;5059158;28;45254;-81
2022/03/15 06:06:34;;;;;;;;;9.00;9.00;;;;;11.69;76.21;101575.19;5059015;28;45327;-82
2022/03/15 06:09:00;;;;;;;;;13.75;13.00;;;;;11.70;76.58;101576.06;5059100;28;45358;-79
2022/03/15 06:11:26;;;;;;;;;7.50;7.50;;;;;11.74;76.63;101579.69;5059602;28;45280;-83
2022/03/15 06:13:51;;;;;;;;;10.75;9.00;;;;;11.76;76.98;101578.81;5060712;28;45397;-82
2022/03/15 06:16:17;;;;;;;;;15.00;12.75;;;;;11.70;77.06;101568.16;5059356;28;45351;-84
2022/03/15 06:18:42;;;;;;;;;10.25;10.25;;;;;11.79;77.33;101581.50;5062197;28;46933;-81
2022/03/15 06:21:09;;;;;;;;;15.75;13.75;;;;;11.80;77.13;101583.31;5069746;28;45489;-77
2022/03/15 06:23:34;;;;;;;;;12.75;12.75;;;;;11.83;77.43;101586.03;5071093;28;45445;-81
2022/03/15 06:26:00;;;;;;;;;12.00;11.50;;;;;11.84;77.32;101581.63;5062045;28;45656;-83
2022/03/15 06:28:25;;;;;;;;;15.25;14.00;;;;;11.77;77.34;101569.16;5059685;28;46038;-78
2022/03/15 06:30:51;;;;;;;;;10.75;10.75;;;;;11.84;76.88;101582.50;5075131;28;45460;-78
2022/03/15 06:33:16;;;;;;;;;16.00;12.75;;;;;11.85;77.72;101579.00;5065450;28;45669;-75
2022/03/15 06:35:46;;;;;;;;;17.25;15.75;;;;;11.85;77.24;101576.38;5070397;28;45705;-75
2022/03/15 06:38:11;;;;;;;;;16.00;14.75;;;;;11.87;77.64;101587.84;5076094;28;45707;-76
2022/03/15 06:40:37;;;;;;;;;13.75;13.75;;;;;11.79;76.93;101568.31;5069560;28;45507;-77
2022/03/15 06:43:03;;;;;;;;;17.75;14.25;;;;;11.89;77.11;101577.28;5076504;28;45457;-80
2022/03/15 06:45:28;;;;;;;;;16.00;13.50;;;;;11.91;77.29;101579.13;5066443;28;45383;-75
2022/03/15 06:47:54;;;;;;;;;16.25;16.25;;;;;11.92;77.66;101574.72;5081103;28;45613;-74
2022/03/15 06:50:19;;;;;;;;;14.25;13.25;;;;;11.95;78.08;101585.31;5076981;28;44791;-77
2022/03/15 06:52:47;;;;;;;;;15.75;12.50;;;;;11.89;77.87;101577.28;5058798;28;45359;-79
2022/03/15 06:55:13;;;;;;;;;21.75;18.50;;;;;11.86;77.09;101566.69;5076668;28;44764;-77
2022/03/15 06:57:40;;;;;;;;;20.00;18.75;;;;;11.96;77.61;101581.81;5059645;28;46187;-76
2022/03/15 07:00:09;;;;;;;;;20.00;20.00;;;;;11.97;77.65;101576.53;5062924;28;45540;-81
2022/03/15 07:02:36;;;;;;;;;20.75;18.50;;;;;12.01;77.43;101579.25;5060807;28;45284;-81
2022/03/15 07:05:02;;;;;;;;;20.50;18.50;;;;;12.01;76.68;101571.34;5060592;28;45556;-81
2022/03/15 07:07:27;;;;;;;;;20.75;19.25;;;;;12.04;77.30;101566.09;5060280;28;46174;-81
2022/03/15 07:09:54;;;;;;;;;20.00;19.00;;;;;11.99;77.44;101558.97;5058360;28;45299;-82
2022/03/15 07:12:20;;;;;;;;;20.50;18.75;;;;;12.03;77.33;101561.66;5058422;28;45482;-81
2022/03/15 07:14:47;;;;;;;;;20.50;20.50;;;;;12.01;77.57;101564.28;5058134;28;45386;-81
2022/03/15 07:17:13;;;;;;;;;20.00;20.00;;;;;12.01;77.19;101569.56;5056543;28;47441;-81
2022/03/15 07:19:38;;;;;;;;;21.75;20.75;;;;;11.99;77.22;101569.53;5057872;28;45973;-79
2022/03/15 07:22:06;;;;;;;;;20.75;19.50;;;;;12.06;77.84;101582.84;5057744;28;45530;-82
2022/03/15 07:24:32;;;;;;;;;22.50;19.00;;;;;12.08;77.03;101581.09;5060427;28;45251;-76
2022/03/15 07:26:57;;;;;;;;;23.25;21.75;;;;;12.03;77.80;101582.78;5055594;28;46658;-80
2022/03/15 07:29:22;;;;;;;;;23.75;22.00;;;;;12.07;77.06;101588.13;5070741;28;45600;-82
2022/03/15 07:31:48;;;;;;;;;19.50;18.75;;;;;12.03;76.70;101574.88;5068770;28;45477;-82
2022/03/15 07:34:13;;;;;;;;;23.25;21.00;;;;;12.05;76.50;101567.84;5060685;28;45363;-81
2022/03/15 07:36:39;;;;;;;;;19.75;18.75;;;;;12.10;76.38;101592.56;5076341;28;46088;-78
2022/03/15 07:39:04;;;;;;;;;14.00;14.00;;;;;12.01;77.11;101577.50;5077801;28;45371;-82
2022/03/15 07:41:32;;;;;;;;;19.25;18.25;;;;;12.04;76.37;101582.81;5077471;28;45251;-80
2022/03/15 07:43:58;;;;;;;;;21.25;19.50;;;;;12.05;75.82;101581.06;5078112;28;45341;-83
2022/03/15 07:46:25;;;;;;;;;21.00;18.75;;;;;12.06;75.94;101589.00;5055771;27;45541;-80
2022/03/15 07:48:50;;;;;;;;;18.00;18.00;;;;;11.99;75.73;101566.88;5054693;28;45401;-77
2022/03/15 07:51:16;;;;;;;;;23.50;23.50;;;;;12.01;75.87;101564.28;5056621;28;45165;-80
2022/03/15 07:53:41;;;;;;;;;22.00;22.00;;;;;12.06;77.56;101574.91;5056059;28;45394;-81
2022/03/15 07:56:06;;;;;;;;;18.00;18.00;;;;;12.10;76.16;101582.91;5056568;28;45345;-83
2022/03/15 07:58:32;;;;;;;;;22.25;20.00;;;;;12.09;75.70;101561.75;5057277;28;45237;-74
2022/03/15 08:00:59;;;;;;;;;20.25;20.25;;;;;12.18;75.91;101569.78;5058736;28;45396;-82
2022/03/15 08:03:24;;;;;;;;;19.75;19.75;;;;;12.19;76.63;101568.94;5054912;28;45563;-79
2022/03/15 08:05:50;;;;;;;;;22.50;20.75;;;;;12.21;75.80;101572.50;5063468;28;46801;-78
2022/03/15 08:08:16;;;;;;;;;26.75;24.00;;;;;12.18;75.99;101569.78;5055010;28;45505;-78
2022/03/15 08:10:43;;;;;;;;;27.25;25.00;;;;;12.23;76.24;101560.19;5055566;28;45404;-78
2022/03/15 08:13:08;;;;;;;;;22.25;20.50;;;;;12.25;76.31;101569.91;5055205;28;45481;-77
2022/03/15 08:15:34;;;;;;;;;25.50;23.00;;;;;12.28;76.10;101571.69;5055494;28;46505;-80
2022/03/15 08:18:00;;;;;;;;;24.00;21.00;;;;;12.25;75.83;101574.31;5036445;28;45549;-80
2022/03/15 08:20:32;;;;;;;;;24.50;23.25;;;;;12.26;75.95;101576.06;5055598;28;45855;-84
2022/03/15 08:22:58;;;;;;;;;23.50;23.50;;;;;12.24;76.69;101556.69;5055594;28;45446;-79
2022/03/15 08:25:24;;;;;;;;;30.25;27.75;;;;;12.29;76.88;101560.28;5056171;28;46016;-80
2022/03/15 08:27:49;;;;;;;;;25.75;24.50;;;;;12.38;76.67;101564.81;5057406;28;45648;-79
2022/03/15 08:30:15;;;;;;;;;17.25;17.25;;;;;12.25;77.09;101532.91;5054960;28;45570;-77
2022/03/15 08:32:40;;;;;;;;;30.00;27.00;;;;;12.37;76.23;101548.03;5065369;28;45500;-80
2022/03/15 08:35:06;;;;;;;;;22.25;22.25;;;;;12.43;76.95;101553.41;5054830;28;45915;-79
2022/03/15 08:37:31;;;;;;;;;25.75;24.25;;;;;12.47;76.14;101562.25;5055911;28;45561;-78
2022/03/15 08:39:57;;;;;;;;;32.75;30.25;;;;;12.48;75.93;101567.59;5055865;28;45334;-80
2022/03/15 08:42:23;;;;;;;;;36.75;29.75;;;;;12.49;76.27;101579.03;5054720;28;45235;-78
2022/03/15 08:44:49;;;;;;;;;31.25;29.50;;;;;12.48;76.28;101580.81;5051743;28;45935;-78
2022/03/15 08:47:14;;;;;;;;;26.50;24.50;;;;;12.40;76.01;101557.78;5055009;28;45651;-77
2022/03/15 08:49:41;;;;;;;;;26.50;26.50;;;;;12.41;75.80;101570.13;5056154;28;45361;-78
2022/03/15 08:52:08;;;;;;;;;24.25;24.25;;;;;12.40;76.42;101571.88;5060597;28;45593;-80
2022/03/15 08:54:34;;;;;;;;;28.00;27.00;;;;;12.45;76.03;101574.56;5055357;28;45836;-79
2022/03/15 08:57:00;;;;;;;;;28.25;24.50;;;;;12.40;76.53;101577.16;5054574;28;45749;-79
2022/03/15 08:59:25;;;;;;;;;24.25;24.25;;;;;12.38;76.65;101580.66;5053600;28;45658;-76
2022/03/15 09:01:52;;;;;;;;;23.50;22.75;;;;;12.22;76.50;101559.31;5062574;28;45228;-78
2022/03/15 09:04:17;;;;;;;;;28.25;25.25;;;;;12.45;76.55;101599.25;5047726;28;45386;-79
2022/03/15 09:06:43;;;;;;;;;25.50;21.25;;;;;12.48;76.00;101588.72;5054887;28;45429;-79
2022/03/15 09:09:08;;;;;;;;;26.25;24.50;;;;;12.50;75.86;101587.00;5053717;28;45168;-78
2022/03/15 09:11:34;;;;;;;;;27.25;23.25;;;;;12.51;75.87;101593.16;5064515;28;45396;-77
2022/03/15 09:14:00;;;;;;;;;30.75;29.25;;;;;12.47;76.32;101594.88;5061214;28;45387;-81
2022/03/15 09:16:25;;;;;;;;;26.00;24.25;;;;;12.41;76.28;101576.28;5076543;28;45453;-78
2022/03/15 09:18:51;;;;;;;;;27.50;25.75;;;;;12.49;76.40;101576.41;5080085;28;45352;-79
2022/03/15 09:21:18;;;;;;;;;27.50;24.75;;;;;12.51;76.45;101574.66;5076236;28;45813;-74
2022/03/15 09:23:44;;;;;;;;;29.25;27.50;;;;;12.60;75.89;101592.41;5068742;28;46363;-75
2022/03/15 09:26:09;;;;;;;;;24.75;24.00;;;;;12.57;75.95;101589.72;5074164;28;45516;-73
2022/03/15 09:28:35;;;;;;;;;29.00;27.50;;;;;12.64;76.09;101591.56;5076508;28;45420;-74
2022/03/15 09:31:01;;;;;;;;;28.50;26.00;;;;;12.67;75.35;101599.53;5077123;28;45184;-76
2022/03/15 09:33:28;;;;;;;;;30.25;29.50;;;;;12.72;75.59;101593.41;5074395;28;47258;-80
2022/03/15 09:35:54;;;;;;;;;30.25;28.25;;;;;12.77;75.58;101599.66;5058865;28;45414;-81
2022/03/15 09:38:21;;;;;;;;;24.75;24.00;;;;;12.81;75.51;101595.28;5057310;28;45271;-74
2022/03/15 09:40:50;;;;;;;;;26.75;26.75;;;;;12.85;75.52;101589.19;5058080;28;45670;-74
2022/03/15 09:43:19;;;;;;;;;26.50;24.00;;;;;12.87;75.11;101574.22;5069030;28;46550;-78
2022/03/15 09:45:45;;;;;;;;;29.00;28.50;;;;;12.97;75.15;101584.03;5068450;28;45516;-77
2022/03/15 09:48:15;;;;;;;;;25.75;25.75;;;;;12.95;74.60;101580.50;5067530;28;45445;-77
2022/03/15 09:50:42;;;;;;;;;27.75;24.75;;;;;12.98;74.83;101567.28;5079375;28;45788;-74
2022/03/15 09:53:09;;;;;;;;;30.00;28.50;;;;;13.02;74.77;101577.00;5066019;28;45358;-76
2022/03/15 09:55:34;;;;;;;;;26.25;25.25;;;;;13.05;74.85;101574.44;5059175;28;45355;-75
2022/03/15 09:58:01;;;;;;;;;29.25;29.25;;;;;12.97;74.76;101541.72;5062733;28;45554;-74
2022/03/15 10:00:26;;;;;;;;;28.50;28.50;;;;;13.06;74.66;101548.84;5073978;28;45512;-73
2022/03/15 10:02:52;;;;;;;;;30.25;28.50;;;;;13.06;74.80;101539.16;5074624;28;46926;-75
2022/03/15 10:05:18;;;;;;;;;31.75;26.50;;;;;13.10;74.83;101548.00;5063931;28;45680;-79
2022/03/15 10:07:44;;;;;;;;;30.25;29.00;;;;;13.18;74.66;101556.91;5067110;28;45500;-77
2022/03/15 10:10:14;;;;;;;;;33.00;29.75;;;;;13.22;74.48;101552.59;5077361;28;45454;-78
2022/03/15 10:12:39;;;;;;;;;29.75;28.50;;;;;13.19;74.06;101557.78;5073861;28;45597;-79
2022/03/15 10:15:18;;;;;;;;;28.00;26.50;;;;;13.12;74.80;101563.03;5061450;28;45546;-84
2022/03/15 10:17:48;;;;;;;;;31.75;29.00;;;;;13.06;74.68;101560.31;5071190;28;45586;-78
2022/03/15 10:20:18;;;;;;;;;35.75;30.75;;;;;13.08;74.60;101553.28;5059614;28;45373;-80
2022/03/15 10:22:58;;;;;;;;;30.25;28.25;;;;;13.05;74.89;101544.44;5074034;28;45483;-80
2022/03/15 10:25:25;;;;;;;;;28.25;25.25;;;;;13.10;75.37;101561.22;5064792;27;45431;-75
2022/03/15 10:27:54;;;;;;;;;33.25;31.50;;;;;13.09;75.40;101555.06;5058352;28;45373;-78
2022/03/15 10:30:19;;;;;;;;;31.00;28.50;;;;;13.05;74.52;101544.44;5058076;28;45570;-78
2022/03/15 10:32:47;;;;;;;;;34.25;33.00;;;;;13.05;75.27;101550.63;5074853;28;45413;-78
2022/03/15 10:35:16;;;;;;;;;30.25;27.00;;;;;13.02;74.78;101536.47;5062153;28;45273;-78
2022/03/15 10:37:41;;;;;;;;;28.50;28.50;;;;;13.07;75.22;101546.22;5066941;28;45558;-81
2022/03/15 10:40:07;;;;;;;;;27.50;26.75;;;;;13.05;74.79;101545.31;5074223;28;45487;-80
2022/03/15 10:42:41;;;;;;;;;36.00;30.25;;;;;13.07;74.35;101555.91;5054270;28;45397;-78
2022/03/15 10:45:19;;;;;;;;;32.25;29.00;;;;;13.03;74.87;101532.97;5074771;28;45426;-80
2022/03/15 10:47:54;;;;;;;;;28.75;28.00;;;;;13.05;74.54;101541.78;5078501;28;45424;-77
2022/03/15 10:50:33;;;;;;;;;36.00;33.50;;;;;13.03;75.24;101535.63;5060735;28;45448;-82
2022/03/15 10:53:07;;;;;;;;;33.50;30.00;;;;;13.07;74.85;101533.00;5062330;28;45247;-80
2022/03/15 10:55:33;;;;;;;;;24.50;24.50;;;;;12.98;74.52;101516.16;5067407;28;45481;-83
2022/03/15 10:58:04;;;;;;;;;37.00;33.00;;;;;13.16;74.67;101528.66;5062505;28;45442;-79
2022/03/15 11:00:36;;;;;;;;;31.00;30.50;;;;;13.15;74.81;101529.53;5059965;28;45444;-82
2022/03/15 11:03:06;;;;;;;;;36.25;33.25;;;;;13.22;74.49;101536.72;5057584;28;46290;-79
2022/03/15 11:05:37;;;;;;;;;35.75;30.00;;;;;13.10;74.33;101517.16;5058190;28;45468;-80
2022/03/15 11:08:05;;;;;;;;;37.50;31.25;;;;;13.19;74.43;101542.84;5058417;28;45370;-81
2022/03/15 11:10:30;;;;;;;;;32.00;31.00;;;;;13.06;74.37;101509.19;5040364;28;45442;-83
2022/03/15 11:13:02;;;;;;;;;42.75;35.25;;;;;13.23;73.88;101527.91;5056286;28;46176;-81
2022/03/15 11:15:30;;;;;;;;;33.50;32.50;;;;;13.27;74.30;101533.22;5057555;28;45413;-77